createdAt,value
2019-02-22T00:00:57.963Z,7.40
2019-02-22T00:03:26.372Z,7.40
2019-02-22T00:05:54.784Z,7.40
2019-02-22T00:08:23.192Z,7.40
2019-02-22T00:13:19.749Z,7.40
2019-02-22T00:15:48.219Z,7.30
2019-02-22T00:18:16.624Z,7.30
2019-02-22T00:23:13.109Z,7.30
2019-02-22T00:28:09.586Z,7.20
2019-02-22T00:30:38.020Z,7.20
2019-02-22T00:33:06.421Z,7.30
2019-02-22T00:35:35.030Z,7.30
2019-02-22T00:38:03.504Z,7.30
2019-02-22T00:40:31.900Z,7.40
2019-02-22T00:43:00.312Z,7.40
2019-02-22T00:45:28.708Z,7.40
2019-02-22T00:47:57.110Z,7.50
2019-02-22T00:50:25.524Z,7.60
2019-02-22T00:52:53.917Z,7.60
2019-02-22T00:55:22.324Z,7.60
2019-02-22T00:57:50.766Z,7.60
2019-02-22T01:00:19.166Z,7.60
2019-02-22T01:05:15.681Z,7.60
2019-02-22T01:15:08.846Z,7.50
2019-02-22T01:17:37.243Z,7.50
2019-02-22T01:20:06.569Z,7.50
2019-02-22T01:22:34.972Z,7.50
2019-02-22T01:25:03.524Z,7.50
2019-02-22T01:27:31.963Z,7.50
2019-02-22T01:32:28.479Z,7.60
2019-02-22T01:34:57.064Z,7.60
2019-02-22T01:37:25.456Z,7.50
2019-02-22T01:42:22.023Z,7.60
2019-02-22T01:44:50.430Z,7.50
2019-02-22T01:49:46.951Z,7.50
2019-02-22T01:52:15.341Z,7.50
2019-02-22T01:57:11.820Z,7.50
2019-02-22T01:59:40.224Z,7.50
2019-02-22T02:02:08.693Z,7.50
2019-02-22T02:04:37.100Z,7.40
2019-02-22T02:09:33.622Z,7.50
2019-02-22T02:12:02.231Z,7.50
2019-02-22T02:14:30.697Z,7.50
2019-02-22T02:16:59.092Z,7.60
2019-02-22T02:19:27.527Z,7.60
2019-02-22T02:21:55.926Z,7.60
2019-02-22T02:24:24.421Z,7.60
2019-02-22T02:26:52.816Z,7.60
2019-02-22T02:29:21.217Z,7.50
2019-02-22T02:31:49.632Z,7.60
2019-02-22T02:34:18.025Z,7.50
2019-02-22T02:36:46.438Z,7.50
2019-02-22T02:39:14.838Z,7.50
2019-02-22T02:41:43.278Z,7.50
2019-02-22T02:44:11.667Z,7.50
2019-02-22T02:49:08.210Z,7.40
2019-02-22T02:51:36.659Z,7.40
2019-02-22T02:54:05.049Z,7.40
2019-02-22T02:56:33.460Z,7.50
2019-02-22T02:59:01.865Z,7.40
2019-02-22T03:01:30.311Z,7.50
2019-02-22T03:06:28.428Z,7.40
2019-02-22T03:08:56.824Z,7.40
2019-02-22T03:11:25.278Z,7.50
2019-02-22T03:13:53.672Z,7.50
2019-02-22T03:21:18.283Z,7.50
2019-02-22T03:26:14.820Z,7.50
2019-02-22T03:28:43.226Z,7.50
2019-02-22T03:31:11.669Z,7.50
2019-02-22T03:33:40.105Z,7.50
2019-02-22T03:38:36.625Z,7.40
2019-02-22T03:43:33.151Z,7.50
2019-02-22T03:46:01.558Z,7.40
2019-02-22T03:48:30.058Z,7.50
2019-02-22T03:50:58.498Z,7.40
2019-02-22T03:53:28.542Z,7.40
2019-02-22T03:55:56.941Z,7.50
2019-02-22T03:58:25.360Z,7.50
2019-02-22T04:00:53.795Z,7.50
2019-02-22T04:03:22.343Z,7.40
2019-02-22T04:05:50.737Z,7.50
2019-02-22T04:08:19.188Z,7.40
2019-02-22T04:14:01.477Z,7.40
2019-02-22T04:16:29.881Z,7.40
2019-02-22T04:18:58.332Z,7.40
2019-02-22T04:21:26.737Z,7.40
2019-02-22T04:26:23.309Z,7.40
2019-02-22T04:31:21.967Z,7.30
2019-02-22T04:33:50.392Z,7.30
2019-02-22T04:36:18.837Z,7.40
2019-02-22T04:38:47.396Z,7.30
2019-02-22T04:41:15.792Z,7.30
2019-02-22T04:43:44.233Z,7.30
2019-02-22T04:48:40.765Z,7.30
2019-02-22T04:53:37.272Z,7.40
2019-02-22T04:56:05.670Z,7.30
2019-02-22T05:01:02.437Z,7.40
2019-02-22T05:03:30.839Z,7.40
2019-02-22T05:05:59.241Z,7.40
2019-02-22T05:08:27.739Z,7.40
2019-02-22T05:10:56.165Z,7.40
2019-02-22T05:13:24.634Z,7.40
2019-02-22T05:15:53.032Z,7.30
2019-02-22T05:18:21.443Z,7.30
2019-02-22T05:20:49.839Z,7.30
2019-02-22T05:23:18.277Z,7.30
2019-02-22T05:28:14.789Z,7.30
2019-02-22T05:30:43.269Z,7.30
2019-02-22T05:35:39.811Z,7.30
2019-02-22T05:38:08.213Z,7.40
2019-02-22T05:40:36.644Z,7.40
2019-02-22T05:43:05.046Z,7.30
2019-02-22T05:45:33.551Z,7.30
2019-02-22T05:48:02.050Z,7.30
2019-02-22T05:50:30.493Z,7.30
2019-02-22T05:52:58.966Z,7.30
2019-02-22T05:55:27.433Z,7.30
2019-02-22T05:57:55.840Z,7.30
2019-02-22T06:00:24.269Z,7.30
2019-02-22T06:05:20.794Z,7.40
2019-02-22T06:07:49.256Z,7.30
2019-02-22T06:12:45.766Z,7.30
2019-02-22T06:17:42.280Z,7.40
2019-02-22T06:20:12.616Z,7.30
2019-02-22T06:22:41.031Z,7.40
2019-02-22T06:25:09.440Z,7.40
2019-02-22T06:27:37.847Z,7.30
2019-02-22T06:32:35.877Z,7.40
2019-02-22T06:37:33.310Z,7.40
2019-02-22T06:42:30.385Z,7.30
2019-02-22T06:44:58.824Z,7.30
2019-02-22T06:49:55.432Z,7.30
2019-02-22T06:52:24.296Z,7.30
2019-02-22T06:54:52.679Z,7.30
2019-02-22T06:57:21.116Z,7.30
2019-02-22T06:59:49.528Z,7.30
2019-02-22T07:04:46.026Z,7.30
2019-02-22T07:07:14.422Z,7.40
2019-02-22T07:09:42.835Z,7.40
2019-02-22T07:14:57.424Z,7.40
2019-02-22T07:24:50.128Z,7.40
2019-02-22T07:27:18.520Z,7.40
2019-02-22T07:29:46.935Z,7.40
2019-02-22T07:32:15.339Z,7.40
2019-02-22T07:34:43.825Z,7.50
2019-02-22T07:39:40.415Z,7.50
2019-02-22T07:42:08.813Z,7.50
2019-02-22T07:44:37.267Z,7.50
2019-02-22T07:47:05.667Z,7.50
2019-02-22T07:49:34.098Z,7.40
2019-02-22T07:52:02.491Z,7.50
2019-02-22T07:54:30.902Z,7.50
2019-02-22T07:56:59.307Z,7.50
2019-02-22T07:59:27.715Z,7.50
2019-02-22T08:01:56.688Z,7.50
2019-02-22T08:04:25.109Z,7.50
2019-02-22T08:06:53.496Z,7.50
2019-02-22T08:09:21.949Z,7.50
2019-02-22T08:11:50.410Z,7.50
2019-02-22T08:14:18.820Z,7.50
2019-02-22T08:16:47.230Z,7.50
2019-02-22T08:19:15.969Z,7.60
2019-02-22T08:21:44.377Z,7.60
2019-02-22T08:24:12.801Z,7.60
2019-02-22T08:26:41.208Z,7.60
2019-02-22T08:29:09.635Z,7.60
2019-02-22T08:31:38.039Z,7.60
2019-02-22T08:34:06.469Z,7.60
2019-02-22T08:36:34.924Z,7.60
2019-02-22T08:39:04.728Z,7.60
2019-02-22T08:41:33.167Z,7.60
2019-02-22T08:44:01.661Z,7.60
2019-02-22T08:46:30.102Z,7.70
2019-02-22T08:48:58.496Z,7.70
2019-02-22T08:51:26.913Z,7.70
2019-02-22T08:53:55.709Z,7.70
2019-02-22T08:56:24.275Z,7.70
2019-02-22T08:58:52.686Z,7.70
2019-02-22T09:01:21.123Z,7.80
2019-02-22T09:03:51.083Z,7.80
2019-02-22T09:06:19.706Z,7.80
2019-02-22T09:08:48.105Z,7.80
2019-02-22T09:13:44.605Z,7.90
2019-02-22T09:18:41.090Z,8.00
2019-02-22T09:21:09.505Z,8.10
2019-02-22T09:23:37.929Z,8.20
2019-02-22T09:26:06.345Z,8.30
2019-02-22T09:31:02.841Z,8.40
2019-02-22T09:33:31.236Z,8.50
2019-02-22T09:35:59.648Z,8.50
2019-02-22T09:38:28.076Z,8.50
2019-02-22T09:40:56.512Z,8.50
2019-02-22T09:43:25.007Z,8.60
2019-02-22T09:48:21.505Z,8.70
2019-02-22T09:50:49.903Z,8.70
2019-02-22T09:53:18.309Z,8.70
2019-02-22T09:55:46.711Z,8.80
2019-02-22T09:58:15.115Z,8.80
2019-02-22T10:00:43.523Z,8.80
2019-02-22T10:05:40.029Z,9.00
2019-02-22T10:08:08.513Z,9.00
2019-02-22T10:10:36.916Z,9.10
2019-02-22T10:13:05.330Z,9.10
2019-02-22T10:15:33.724Z,9.10
2019-02-22T10:18:02.144Z,9.10
2019-02-22T10:20:30.542Z,9.20
2019-02-22T10:22:58.957Z,9.20
2019-02-22T10:25:27.440Z,9.20
2019-02-22T10:27:55.852Z,9.20
2019-02-22T10:32:52.355Z,9.20
2019-02-22T10:35:20.786Z,9.20
2019-02-22T10:37:49.187Z,9.20
2019-02-22T10:42:45.832Z,9.30
2019-02-22T10:45:14.232Z,9.30
2019-02-22T10:47:42.637Z,9.10
2019-02-22T10:50:11.036Z,9.10
2019-02-22T10:52:39.445Z,9.10
2019-02-22T10:55:10.888Z,9.00
2019-02-22T11:00:13.404Z,8.90
2019-02-22T11:02:41.853Z,9.00
2019-02-22T11:05:10.380Z,9.00
2019-02-22T11:07:38.824Z,9.00
2019-02-22T11:10:11.785Z,9.00
2019-02-22T11:17:37.617Z,9.00
2019-02-22T11:20:08.715Z,9.00
2019-02-22T11:22:37.129Z,9.10
2019-02-22T11:25:14.126Z,9.20
2019-02-22T11:27:42.546Z,9.30
2019-02-22T11:30:12.879Z,9.40
2019-02-22T11:32:41.392Z,9.40
2019-02-22T11:35:10.565Z,9.40
2019-02-22T11:37:39.000Z,9.50
2019-02-22T11:40:09.035Z,9.60
2019-02-22T11:42:37.453Z,9.60
2019-02-22T11:45:07.496Z,9.70
2019-02-22T11:47:35.904Z,9.70
2019-02-22T11:52:34.240Z,10.00
2019-02-22T11:57:31.139Z,10.10
2019-02-22T11:59:59.570Z,10.20
2019-02-22T12:02:28.007Z,10.30
2019-02-22T12:04:56.429Z,10.30
2019-02-22T12:07:24.844Z,10.40
2019-02-22T12:09:53.351Z,10.50
2019-02-22T12:12:21.764Z,10.60
2019-02-22T12:14:52.085Z,10.80
2019-02-22T12:17:20.341Z,11.00
2019-02-22T12:19:48.748Z,11.10
2019-02-22T12:22:17.191Z,11.20
2019-02-22T12:24:45.591Z,11.30
2019-02-22T12:27:14.260Z,11.10
2019-02-22T12:29:42.788Z,11.10
2019-02-22T12:32:11.228Z,11.10
2019-02-22T12:34:39.658Z,11.20
2019-02-22T12:37:08.052Z,11.30
2019-02-22T12:39:36.463Z,11.40
2019-02-22T12:42:04.940Z,11.50
2019-02-22T12:44:33.444Z,11.50
2019-02-22T12:47:01.953Z,11.60
2019-02-22T12:49:30.406Z,11.50
2019-02-22T12:51:58.830Z,11.50
2019-02-22T12:54:27.264Z,11.50
2019-02-22T12:56:57.844Z,11.40
2019-02-22T12:59:25.856Z,11.40
2019-02-22T13:01:54.256Z,11.50
2019-02-22T13:09:18.846Z,11.40
2019-02-22T13:14:15.625Z,11.40
2019-02-22T13:16:44.053Z,11.40
2019-02-22T13:19:12.462Z,11.40
2019-02-22T13:21:40.869Z,11.40
2019-02-22T13:24:09.301Z,11.40
2019-02-22T13:26:37.706Z,11.50
2019-02-22T13:31:34.184Z,11.40
2019-02-22T13:34:02.631Z,11.40
2019-02-22T13:36:31.035Z,11.30
2019-02-22T13:38:59.448Z,11.10
2019-02-22T13:41:27.866Z,10.90
2019-02-22T13:43:56.276Z,10.70
2019-02-22T13:46:26.563Z,10.60
2019-02-22T13:48:54.893Z,10.40
2019-02-22T13:51:23.537Z,10.30
2019-02-22T13:53:51.950Z,10.20
2019-02-22T13:56:29.328Z,10.20
2019-02-22T13:58:50.509Z,10.30
2019-02-22T14:01:19.036Z,10.30
2019-02-22T14:03:47.443Z,10.30
2019-02-22T14:06:15.869Z,10.40
2019-02-22T14:08:44.285Z,10.40
2019-02-22T14:11:12.682Z,10.50
2019-02-22T14:13:41.091Z,10.60
2019-02-22T14:16:09.525Z,10.60
2019-02-22T14:18:37.936Z,10.50
2019-02-22T14:21:06.344Z,10.50
2019-02-22T14:23:34.753Z,10.50
2019-02-22T14:28:31.260Z,10.50
2019-02-22T14:30:59.672Z,10.70
2019-02-22T14:35:56.189Z,10.80
2019-02-22T14:38:24.590Z,10.70
2019-02-22T14:40:53.029Z,10.60
2019-02-22T14:45:53.064Z,10.40
2019-02-22T14:48:19.684Z,10.30
2019-02-22T14:50:48.097Z,10.20
2019-02-22T14:53:19.542Z,10.10
2019-02-22T14:55:46.708Z,10.10
2019-02-22T14:58:15.144Z,10.10
2019-02-22T15:00:43.547Z,10.10
2019-02-22T15:03:11.947Z,10.10
2019-02-22T15:05:40.352Z,10.20
2019-02-22T15:08:08.781Z,10.30
2019-02-22T15:13:05.292Z,10.40
2019-02-22T15:16:00.182Z,10.40
2019-02-22T15:18:20.496Z,10.40
2019-02-22T15:20:48.936Z,10.40
2019-02-22T15:23:17.330Z,10.40
2019-02-22T15:25:46.076Z,10.30
2019-02-22T15:28:14.597Z,10.20
2019-02-22T15:30:45.166Z,10.20
2019-02-22T15:33:13.209Z,10.20
2019-02-22T15:35:41.613Z,10.10
2019-02-22T15:38:10.244Z,10.10
2019-02-22T15:40:39.432Z,10.00
2019-02-22T15:43:08.081Z,10.00
2019-02-22T15:45:36.569Z,9.90
2019-02-22T15:53:20.449Z,9.80
2019-02-22T15:55:48.851Z,9.80
2019-02-22T15:58:17.281Z,9.80
2019-02-22T16:03:13.800Z,9.60
2019-02-22T16:08:11.917Z,9.50
2019-02-22T16:10:40.357Z,9.40
2019-02-22T16:13:08.745Z,9.40
2019-02-22T16:18:05.367Z,9.30
2019-02-22T16:20:33.762Z,9.20
2019-02-22T16:23:02.243Z,9.20
2019-02-22T16:27:58.727Z,9.20
2019-02-22T16:30:28.849Z,9.20
2019-02-22T16:35:25.370Z,9.10
2019-02-22T16:40:21.912Z,8.90
2019-02-22T16:42:50.314Z,8.90
2019-02-22T16:45:18.787Z,8.80
2019-02-22T16:47:47.882Z,8.80
2019-02-22T16:50:16.255Z,8.80
2019-02-22T16:52:45.361Z,8.70
2019-02-22T16:55:15.694Z,8.70
2019-02-22T16:57:44.101Z,8.80
2019-02-22T17:00:14.737Z,8.70
2019-02-22T17:02:43.137Z,8.70
2019-02-22T17:05:14.718Z,8.70
2019-02-22T17:10:11.917Z,8.60
2019-02-22T17:12:40.427Z,8.50
2019-02-22T17:15:11.492Z,8.50
2019-02-22T17:17:39.899Z,8.40
2019-02-22T17:20:12.626Z,8.40
2019-02-22T17:22:41.396Z,8.40
2019-02-22T17:25:12.859Z,8.30
2019-02-22T17:27:41.304Z,8.30
2019-02-22T17:30:12.821Z,8.30
2019-02-22T17:32:41.249Z,8.30
2019-02-22T17:35:09.976Z,8.20
2019-02-22T17:37:38.380Z,8.20
2019-02-22T17:40:12.295Z,8.20
2019-02-22T17:42:40.893Z,8.20
2019-02-22T17:45:09.573Z,8.20
2019-02-22T17:47:37.968Z,8.20
2019-02-22T17:50:10.496Z,8.20
2019-02-22T17:52:38.900Z,8.10
2019-02-22T17:55:09.361Z,8.10
2019-02-22T17:57:37.801Z,8.10
2019-02-22T18:02:37.705Z,8.10
2019-02-22T18:05:07.533Z,8.10
2019-02-22T18:10:04.889Z,8.10
2019-02-22T18:12:33.292Z,8.10
2019-02-22T18:17:29.752Z,8.00
2019-02-22T18:19:58.160Z,8.00
2019-02-22T18:22:26.559Z,8.00
2019-02-22T18:24:54.997Z,8.00
2019-02-22T18:27:23.417Z,8.00
2019-02-22T18:29:51.816Z,8.00
2019-02-22T18:32:20.240Z,8.00
2019-02-22T18:34:48.639Z,7.90
2019-02-22T18:37:17.028Z,7.90
2019-02-22T18:39:45.500Z,8.00
2019-02-22T18:42:13.888Z,7.90
2019-02-22T18:47:18.972Z,7.90
2019-02-22T18:49:40.515Z,7.90
2019-02-22T18:52:08.908Z,7.80
2019-02-22T18:54:37.311Z,7.70
2019-02-22T18:57:05.736Z,7.60
2019-02-22T19:02:02.240Z,7.60
2019-02-22T19:04:30.644Z,7.70
2019-02-22T19:06:59.040Z,7.70
2019-02-22T19:09:27.469Z,7.70
2019-02-22T19:11:55.886Z,7.80
2019-02-22T19:14:24.289Z,7.90
2019-02-22T19:16:52.688Z,7.90
2019-02-22T19:19:21.101Z,7.90
2019-02-22T19:21:49.492Z,7.90
2019-02-22T19:26:45.969Z,7.90
2019-02-22T19:31:42.434Z,7.60
2019-02-22T19:34:10.827Z,7.40
2019-02-22T19:36:39.232Z,7.30
2019-02-22T19:41:35.741Z,7.00
2019-02-22T19:44:04.155Z,6.90
2019-02-22T19:46:32.860Z,6.80
2019-02-22T19:49:01.332Z,6.70
2019-02-22T19:51:29.737Z,6.70
2019-02-22T19:53:58.154Z,6.70
2019-02-22T19:56:26.584Z,6.60
2019-02-22T20:01:23.056Z,6.50
2019-02-22T20:06:19.561Z,6.40
2019-02-22T20:08:47.948Z,6.40
2019-02-22T20:13:44.412Z,6.40
2019-02-22T20:18:40.917Z,6.40
2019-02-22T20:21:09.308Z,6.40
2019-02-22T20:23:37.735Z,6.40
2019-02-22T20:26:06.131Z,6.30
2019-02-22T20:28:35.234Z,6.20
2019-02-22T20:31:03.916Z,6.20
2019-02-22T20:33:51.689Z,6.10
2019-02-22T20:36:28.102Z,6.10
2019-02-22T20:38:50.205Z,6.00
2019-02-22T20:41:18.628Z,6.10
2019-02-22T20:43:47.027Z,6.10
2019-02-22T20:46:15.412Z,6.00
2019-02-22T20:48:43.855Z,6.00
2019-02-22T20:51:12.270Z,6.00
2019-02-22T20:53:40.697Z,6.00
2019-02-22T20:56:09.117Z,5.90
2019-02-22T20:58:37.508Z,5.90
2019-02-22T21:01:14.457Z,5.80
2019-02-22T21:03:36.081Z,5.80
2019-02-22T21:06:04.468Z,5.80
2019-02-22T21:08:32.884Z,5.70
2019-02-22T21:11:01.273Z,5.70
2019-02-22T21:13:29.676Z,5.60
2019-02-22T21:15:58.075Z,5.50
2019-02-22T21:18:26.508Z,5.50
2019-02-22T21:23:22.999Z,5.50
2019-02-22T21:25:51.395Z,5.50
2019-02-22T21:28:19.800Z,5.50
2019-02-22T21:30:48.216Z,5.50
2019-02-22T21:33:16.621Z,5.50
2019-02-22T21:38:13.118Z,5.50
2019-02-22T21:43:09.877Z,5.40
2019-02-22T21:45:38.269Z,5.40
2019-02-22T21:48:06.669Z,5.30
2019-02-22T21:50:35.089Z,5.40
2019-02-22T21:53:03.491Z,5.40
2019-02-22T21:55:31.895Z,5.30
2019-02-22T21:58:00.293Z,5.30
2019-02-22T22:00:30.346Z,5.20
2019-02-22T22:10:23.003Z,4.90
2019-02-22T22:15:19.472Z,4.80
2019-02-22T22:17:47.877Z,4.70
2019-02-22T22:20:16.297Z,4.70
2019-02-22T22:22:44.688Z,4.70
2019-02-22T22:25:14.520Z,4.60
2019-02-22T22:30:15.799Z,4.50
2019-02-22T22:32:44.192Z,4.50
2019-02-22T22:35:17.595Z,4.40
2019-02-22T22:37:46.008Z,4.30
2019-02-22T22:40:14.393Z,4.20
2019-02-22T22:42:42.841Z,4.10
2019-02-22T22:45:13.787Z,4.00
2019-02-22T22:47:42.358Z,3.90
2019-02-22T22:50:14.597Z,3.80
2019-02-22T22:52:43.008Z,3.70
2019-02-22T22:55:11.901Z,3.70
2019-02-22T22:57:40.360Z,3.60
2019-02-22T23:00:30.361Z,3.50
2019-02-22T23:07:55.042Z,3.10
2019-02-22T23:10:23.447Z,3.00
2019-02-22T23:12:51.871Z,3.00
2019-02-22T23:15:20.275Z,2.90
2019-02-22T23:17:48.784Z,2.80
2019-02-22T23:20:17.215Z,2.80
2019-02-22T23:22:45.603Z,2.80
2019-02-22T23:25:14.036Z,2.70
2019-02-22T23:27:42.434Z,2.60
2019-02-22T23:30:10.840Z,2.60
2019-02-22T23:32:39.274Z,2.60
2019-02-22T23:35:07.965Z,2.60
2019-02-22T23:40:04.980Z,2.50
2019-02-22T23:42:33.433Z,2.50
2019-02-22T23:45:01.841Z,2.50
2019-02-22T23:47:30.232Z,2.40
2019-02-22T23:49:58.788Z,2.30
2019-02-22T23:52:27.184Z,2.20
2019-02-22T23:54:55.580Z,2.20
2019-02-22T23:57:24.000Z,2.10
